This is the latest recevied weather packets stored in our database for station/object SV1BYK-4. If no packets are shown the sender has not sent any weather packets the latest 10 day(s).
| Time | Temp. | Humidity | Pressure | Rain* | Wind** | Luminosity | Snow |
|---|---|---|---|---|---|---|---|
| 1777423175 | 15.56° C | 64% | 1012.9 hPa | 0 mm | - | 0 W/m² | - |
| 1777416155 | 16.67° C | 65% | 1013.4 hPa | 0 mm | - | 0 W/m² | - |
| 1777413995 | 16.67° C | 72% | 1013.7 hPa | 0 mm | - | 0 W/m² | - |
| 1777409135 | 17.78° C | 66% | 1013.3 hPa | 0 mm | - | 0 W/m² | - |
| 1777401575 | 19.44° C | 52% | 1013.2 hPa | 0 mm | - | 0 W/m² | - |
| 1777401035 | 20° C | 50% | 1013 hPa | 0 mm | - | 0 W/m² | - |
| 1777400495 | 20° C | 49% | 1012.9 hPa | 0 mm | - | 0 W/m² | - |
| 1777396715 | 20.56° C | 46% | 1012.6 hPa | 0 mm | - | 0 W/m² | - |
| 1777393475 | 22.22° C | 42% | 1012.2 hPa | 0 mm | - | 0 W/m² | - |
| 1777392395 | 23.33° C | 39% | 1012.1 hPa | 0 mm | - | 0 W/m² | - |
| 1777391315 | 22.78° C | 39% | 1012.3 hPa | 0 mm | - | 0 W/m² | - |
| 1777390235 | 23.89° C | 38% | 1012.3 hPa | 0 mm | - | 0 W/m² | - |
| 1777388615 | 25° C | 36% | 1012 hPa | 0 mm | - | 0 W/m² | - |
| 1777386995 | 24.44° C | 38% | 1012.2 hPa | 0 mm | - | 0 W/m² | - |
| 1777385915 | 25° C | 37% | 1012.5 hPa | 0 mm | - | 0 W/m² | - |
| 1777385375 | 24.44° C | 38% | 1012.4 hPa | 0 mm | - | 0 W/m² | - |
| 1777384295 | 25° C | 37% | 1012.6 hPa | 0 mm | - | 0 W/m² | - |
| 1777378355 | 23.89° C | 39% | 1013.4 hPa | 0 mm | - | 0 W/m² | - |
| 1777376735 | 24.44° C | 38% | 1013.7 hPa | 0 mm | - | 0 W/m² | - |
| 1777375115 | 23.89° C | 40% | 1013.7 hPa | 0 mm | - | 0 W/m² | - |
| 1777372415 | 24.44° C | 37% | 1014.4 hPa | 0 mm | - | 0 W/m² | - |
| 1777370795 | 23.89° C | 38% | 1014.7 hPa | 0 mm | - | 0 W/m² | - |
| 1777370255 | 23.33° C | 39% | 1014.7 hPa | 0 mm | - | 0 W/m² | - |
| 1777367555 | 23.89° C | 37% | 1015.1 hPa | 0 mm | - | 0 W/m² | - |
| 1777362155 | 21.67° C | 42% | 1015.5 hPa | 0 mm | - | 0 W/m² | - |
* Rain latest hour (hover to see other rain measurements)
** Current wind speed in m/s (hover to see current wind gust speed)